Vega Emtoli — LAQY7 — position and weather

sailwx.info

Track history (hours):
 
Tides and Currents Weather Stations Pressure Air Temp Water Temp Dewpoint Dewpoint Depression Visibility Wind Speed Wind Dir Waves Ship Positions

Vega Emtoli

Last reported at 2016-Apr-28 20:11 UTC. Time now 2016-May-04 15:26 UTC.
Position S 22°59' W 040°44'.

Length 59 m; draft 5 m.

Type: Pollution control. MMSI: 258026000.

Date/timePositionNaut miles runAvg speedWind from/ knotsBaromVisibWave heightAir tempDewpointWater temp
2016-Apr-28 20:11S 22°59' W 040°44'1 1.2
2016-Apr-28 19:33S 23°00' W 040°44'0 0.4
2016-Apr-28 18:33S 23°00' W 040°44'2 0.3
2016-Apr-28 11:32S 22°59' W 040°42'2 1.9
2016-Apr-28 10:17S 23°00' W 040°44'1 1.1
2016-Apr-28 09:29S 22°60' W 040°43'0 0.1
2016-Apr-28 03:33S 22°60' W 040°43'1 0.1
2016-Apr-27 17:31S 23°00' W 040°44'1 1.0
2016-Apr-27 16:33S 22°60' W 040°43'1 1.1
2016-Apr-27 15:12S 22°59' W 040°41'  
Track history (hours):
 
Tides and Currents Weather Stations Pressure Air Temp Water Temp Dewpoint Dewpoint Depression Visibility Wind Speed Wind Dir Waves Ship Positions

Vega Emtoli

Last reported at 2016-Apr-28 20:11 UTC. Time now 2016-May-04 15:26 UTC.
Position S 22°59' W 040°44'.

Length 59 m; draft 5 m.

Type: Pollution control. MMSI: 258026000.

Date/timePositionNaut miles runAvg speedWind from/ knotsBaromVisibWave heightAir tempDewpointWater temp
2016-Apr-28 20:11S 22°59' W 040°44'1 1.2
2016-Apr-28 19:33S 23°00' W 040°44'0 0.4
2016-Apr-28 18:33S 23°00' W 040°44'2 0.3
2016-Apr-28 11:32S 22°59' W 040°42'2 1.9
2016-Apr-28 10:17S 23°00' W 040°44'1 1.1
2016-Apr-28 09:29S 22°60' W 040°43'0 0.1
2016-Apr-28 03:33S 22°60' W 040°43'1 0.1
2016-Apr-27 17:31S 23°00' W 040°44'1 1.0
2016-Apr-27 16:33S 22°60' W 040°43'1 1.1
2016-Apr-27 15:12S 22°59' W 040°41'  

Dump ship's entire track history